WMKC/KBR METAR and TAF weather

Enter ICAO airport designator
Station Type Date Time Source
WMKC METAR 2021/01/22 06:00 UTC NOAA

WMKC 220600Z 06007KT 010V100 9999 FEW018 29/23 Q1010


Station Type Date Time Source
WMKC Decoded METAR 2021/01/22 06:00 UTC NOAA

Kota Bharu, Malaysia (WMKC) 06-10N 102-17E 5M
Jan 22, 2021 - 01:00 AM EST / 2021.01.22 0600 UTC
Wind: from the ENE (060 degrees) at 8 MPH (7 KT) (direction variable):0
Visibility: greater than 7 mile(s):0
Sky conditions: mostly clear
Temperature: 84 F (29 C)
Dew Point: 73 F (23 C)
Relative Humidity: 70%
Pressure (altimeter): 29.83 in. Hg (1010 hPa)
ob: WMKC 220600Z 06007KT 010V100 9999 FEW018 29/23 Q1010
cycle: 6

Station Type Date Time Source
WMKC TAF 2021/01/22 06:00 UTC NOAA

TAF WMKC 220500Z 2206/2306 08006KT 9999 FEW018
BECMG 2212/2213 VRB03KT FEW020

Example: see airport list